Terminal Aerodrome Forecast
Issued by NWS

Home | Current Version | Previous Version | Text Only | Print | Product List | Glossary On
Versions: 1 2 3 4 5 6 7 8 9 10 11 12 13 14 15 16 17 18 19 20 21 22 23 24 25 26 27 28 29 30 31 32 33 34 35 36 37 38 39 40 41 42 43 44 45 46 47 48 49 50
000
FTUS41 KBOX 190737 AAB
TAFACK
TAF AMD
KACK 190737Z 1908/2006 12005KT P6SM SKC
     FM190900 15006KT P6SM FEW200
     FM191400 17011KT P6SM SCT200
     FM192200 18014KT P6SM VCSH BKN100
     FM200200 19015KT 4SM BR VCSH OVC030 WS020/22040KT
     FM200500 20016KT 3SM BR VCSH OVC020 WS020/23050KT=

USA.gov is the U.S. government's official web portal to all federal, state and local government web resources and services.